createdAt,value
2023-01-19T00:00:57.915Z,924.27
2023-01-19T00:01:58.829Z,924.25
2023-01-19T00:02:59.783Z,924.3
2023-01-19T00:04:00.143Z,924.32
2023-01-19T00:05:01.065Z,924.29
2023-01-19T00:06:01.630Z,924.31
2023-01-19T00:07:02.383Z,924.3
2023-01-19T00:08:02.947Z,924.39
2023-01-19T00:09:03.359Z,924.38
2023-01-19T00:10:03.570Z,924.39
2023-01-19T00:11:04.206Z,924.36
2023-01-19T00:12:04.866Z,924.35
2023-01-19T00:13:05.098Z,924.36
2023-01-19T00:14:06.080Z,924.36
2023-01-19T00:15:06.302Z,924.37
2023-01-19T00:16:06.593Z,924.4
2023-01-19T00:17:07.505Z,924.36
2023-01-19T00:18:09.790Z,924.39
2023-01-19T00:19:08.615Z,924.36
2023-01-19T00:20:08.816Z,924.4
2023-01-19T00:21:09.011Z,924.4
2023-01-19T00:22:09.977Z,924.39
2023-01-19T00:23:10.601Z,924.46
2023-01-19T00:24:11.155Z,924.46
2023-01-19T00:25:11.358Z,924.44
2023-01-19T00:26:12.264Z,924.48
2023-01-19T00:27:13.298Z,924.48
2023-01-19T00:28:13.565Z,924.45
2023-01-19T00:29:14.063Z,924.49
2023-01-19T00:30:14.295Z,924.49
2023-01-19T00:31:14.909Z,924.49
2023-01-19T00:32:15.059Z,924.47
2023-01-19T00:33:15.288Z,924.44
2023-01-19T00:34:16.231Z,924.53
2023-01-19T00:35:16.715Z,924.5
2023-01-19T00:36:16.907Z,924.51
2023-01-19T00:37:17.393Z,924.53
2023-01-19T00:38:18.331Z,924.56
2023-01-19T00:39:18.542Z,924.57
2023-01-19T00:40:18.767Z,924.58
2023-01-19T00:41:19.679Z,924.61
2023-01-19T00:42:20.599Z,924.61
2023-01-19T00:43:20.823Z,924.6
2023-01-19T00:44:21.330Z,924.59
2023-01-19T00:45:22.314Z,924.55
2023-01-19T00:46:22.865Z,924.55
2023-01-19T00:47:23.167Z,924.56
2023-01-19T00:48:23.928Z,924.53
2023-01-19T00:49:24.129Z,924.58
2023-01-19T00:50:24.323Z,924.52
2023-01-19T00:51:25.229Z,924.52
2023-01-19T00:52:25.873Z,924.57
2023-01-19T00:53:26.306Z,924.57
2023-01-19T00:54:27.654Z,924.6
2023-01-19T00:55:27.668Z,924.61
2023-01-19T00:56:28.580Z,924.56
2023-01-19T00:57:28.933Z,924.55
2023-01-19T00:58:29.206Z,924.6
2023-01-19T00:59:29.409Z,924.61
2023-01-19T01:00:30.333Z,924.6
2023-01-19T01:01:44.610Z,924.62
2023-01-19T01:02:31.700Z,924.63
2023-01-19T01:03:31.959Z,924.69
2023-01-19T01:04:32.220Z,924.7
2023-01-19T01:05:33.140Z,924.67
2023-01-19T01:06:33.631Z,924.71
2023-01-19T01:07:33.762Z,924.72
2023-01-19T01:08:34.408Z,924.72
2023-01-19T01:09:34.639Z,924.77
2023-01-19T01:10:34.893Z,924.76
2023-01-19T01:11:35.808Z,924.78
2023-01-19T01:12:36.437Z,924.75
2023-01-19T01:13:35.616Z,924.75
2023-01-19T01:14:35.828Z,924.75
2023-01-19T01:15:36.874Z,924.79
2023-01-19T01:16:37.916Z,924.82
2023-01-19T01:17:38.149Z,924.82
2023-01-19T01:18:38.602Z,924.82
2023-01-19T01:19:38.787Z,924.81
2023-01-19T01:20:39.545Z,924.79
2023-01-19T01:21:39.769Z,924.78
2023-01-19T01:22:40.395Z,924.78
2023-01-19T01:23:40.935Z,924.79
2023-01-19T01:24:41.565Z,924.8
2023-01-19T01:25:41.757Z,924.8
2023-01-19T01:26:42.231Z,924.83
2023-01-19T01:27:42.699Z,924.82
2023-01-19T01:28:42.972Z,924.85
2023-01-19T01:29:43.494Z,924.83
2023-01-19T01:30:43.731Z,924.83
2023-01-19T01:31:44.031Z,924.86
2023-01-19T01:32:44.360Z,924.88
2023-01-19T01:33:44.764Z,924.87
2023-01-19T01:34:45.398Z,924.94
2023-01-19T01:35:46.033Z,924.9
2023-01-19T01:36:46.934Z,924.97
2023-01-19T01:37:47.645Z,924.98
2023-01-19T01:38:48.547Z,925.03
2023-01-19T01:39:49.046Z,924.99
2023-01-19T01:40:50.073Z,925.07
2023-01-19T01:41:50.563Z,925.06
2023-01-19T01:42:50.781Z,925.07
2023-01-19T01:43:51.407Z,925.09
2023-01-19T01:44:51.619Z,925.1
2023-01-19T01:45:52.181Z,925.1
2023-01-19T01:46:53.027Z,925.07
2023-01-19T01:47:53.139Z,925.1
2023-01-19T01:48:53.508Z,925.09
2023-01-19T01:49:54.177Z,925.09
2023-01-19T01:50:54.684Z,925.09
2023-01-19T01:51:55.310Z,925.11
2023-01-19T01:53:07.203Z,925.08
2023-01-19T01:53:55.767Z,925.12
2023-01-19T01:54:56.279Z,925.11
2023-01-19T01:55:56.477Z,925.14
2023-01-19T01:56:57.180Z,925.14
2023-01-19T01:57:57.901Z,925.16
2023-01-19T01:58:58.237Z,925.09
2023-01-19T01:59:58.719Z,925.16
2023-01-19T02:00:59.319Z,925.14
2023-01-19T02:01:59.572Z,925.15
2023-01-19T02:03:00.153Z,925.16
2023-01-19T02:04:00.529Z,925.14
2023-01-19T02:05:01.484Z,925.16
2023-01-19T02:06:02.379Z,925.15
2023-01-19T02:07:03.008Z,925.18
2023-01-19T02:08:03.607Z,925.14
2023-01-19T02:09:04.545Z,925.18
2023-01-19T02:10:05.461Z,925.19
2023-01-19T02:11:05.804Z,925.13
2023-01-19T02:12:06.160Z,925.16
2023-01-19T02:13:06.781Z,925.19
2023-01-19T02:14:07.097Z,925.18
2023-01-19T02:15:08.025Z,925.19
2023-01-19T02:16:08.358Z,925.21
2023-01-19T02:17:08.769Z,925.2
2023-01-19T02:18:09.496Z,925.19
2023-01-19T02:19:10.432Z,925.17
2023-01-19T02:20:11.234Z,925.17
2023-01-19T02:21:11.876Z,925.16
2023-01-19T02:22:12.785Z,925.2
2023-01-19T02:23:13.283Z,925.22
2023-01-19T02:24:13.910Z,925.24
2023-01-19T02:25:14.115Z,925.25
2023-01-19T02:26:15.024Z,925.25
2023-01-19T02:27:16.014Z,925.27
2023-01-19T02:28:16.621Z,925.28
2023-01-19T02:29:17.559Z,925.22
2023-01-19T02:30:17.778Z,925.28
2023-01-19T02:31:18.470Z,925.27
2023-01-19T02:32:18.747Z,925.28
2023-01-19T02:33:19.030Z,925.29
2023-01-19T02:34:19.952Z,925.28
2023-01-19T02:35:20.164Z,925.27
2023-01-19T02:36:21.095Z,925.28
2023-01-19T02:37:22.032Z,925.26
2023-01-19T02:38:23.070Z,925.28
2023-01-19T02:39:23.305Z,925.33
2023-01-19T02:40:23.501Z,925.32
2023-01-19T02:41:24.022Z,925.3
2023-01-19T02:42:24.245Z,925.31
2023-01-19T02:43:25.212Z,925.34
2023-01-19T02:44:25.625Z,925.32
2023-01-19T02:45:26.517Z,925.34
2023-01-19T02:46:26.889Z,925.31
2023-01-19T02:47:27.152Z,925.31
2023-01-19T02:48:27.918Z,925.3
2023-01-19T02:49:28.832Z,925.28
2023-01-19T02:50:29.145Z,925.29
2023-01-19T02:51:29.696Z,925.3
2023-01-19T02:52:30.039Z,925.27
2023-01-19T02:53:30.242Z,925.27
2023-01-19T02:54:30.436Z,925.27
2023-01-19T02:55:31.353Z,925.29
2023-01-19T02:56:31.696Z,925.32
2023-01-19T02:57:31.899Z,925.32
2023-01-19T02:58:32.666Z,925.27
2023-01-19T02:59:33.341Z,925.3
2023-01-19T03:00:33.541Z,925.27
2023-01-19T03:01:34.236Z,925.27
2023-01-19T03:02:35.235Z,925.28
2023-01-19T03:03:35.444Z,925.29
2023-01-19T03:04:36.491Z,925.28
2023-01-19T03:05:36.832Z,925.32
2023-01-19T03:06:37.034Z,925.34
2023-01-19T03:07:38.112Z,925.31
2023-01-19T03:08:39.145Z,925.35
2023-01-19T03:09:39.334Z,925.34
2023-01-19T03:10:39.543Z,925.35
2023-01-19T03:11:40.195Z,925.37
2023-01-19T03:12:40.403Z,925.35
2023-01-19T03:13:41.483Z,925.34
2023-01-19T03:14:42.037Z,925.36
2023-01-19T03:15:42.603Z,925.4
2023-01-19T03:16:43.532Z,925.38
2023-01-19T03:17:43.588Z,925.35
2023-01-19T03:18:44.314Z,925.35
2023-01-19T03:19:44.954Z,925.36
2023-01-19T03:20:45.261Z,925.34
2023-01-19T03:21:45.485Z,925.33
2023-01-19T03:22:45.715Z,925.35
2023-01-19T03:23:46.525Z,925.37
2023-01-19T03:24:47.008Z,925.41
2023-01-19T03:25:47.246Z,925.39
2023-01-19T03:26:47.723Z,925.38
2023-01-19T03:27:47.950Z,925.4
2023-01-19T03:28:49.038Z,925.39
2023-01-19T03:29:49.687Z,925.43
2023-01-19T03:30:49.916Z,925.42
2023-01-19T03:31:50.469Z,925.47
2023-01-19T03:32:51.066Z,925.47
2023-01-19T03:33:51.961Z,925.46
2023-01-19T03:34:52.880Z,925.47
2023-01-19T03:35:53.511Z,925.49
2023-01-19T03:36:53.714Z,925.56
2023-01-19T03:37:54.075Z,925.52
2023-01-19T03:38:55.089Z,925.5
2023-01-19T03:39:55.307Z,925.48
2023-01-19T03:40:55.797Z,925.5
2023-01-19T03:41:56.058Z,925.49
2023-01-19T03:42:56.970Z,925.49
2023-01-19T03:43:57.197Z,925.48
2023-01-19T03:44:57.580Z,925.42
2023-01-19T03:45:58.190Z,925.39
2023-01-19T03:46:58.626Z,925.41
2023-01-19T03:47:59.636Z,925.39
2023-01-19T03:49:00.395Z,925.37
2023-01-19T03:50:00.604Z,925.4
2023-01-19T03:51:00.801Z,925.41
2023-01-19T03:52:01.090Z,925.42
2023-01-19T03:53:01.936Z,925.42
2023-01-19T03:54:02.375Z,925.46
2023-01-19T03:55:02.724Z,925.46
2023-01-19T03:56:03.642Z,925.47
2023-01-19T03:57:04.316Z,925.43
2023-01-19T03:58:05.231Z,925.42
2023-01-19T03:59:06.220Z,925.4
2023-01-19T04:00:07.190Z,925.4
2023-01-19T04:01:07.518Z,925.43
2023-01-19T04:02:08.480Z,925.44
2023-01-19T04:03:09.025Z,925.47
2023-01-19T04:04:09.677Z,925.47
2023-01-19T04:05:09.865Z,925.48
2023-01-19T04:06:10.550Z,925.48
2023-01-19T04:07:11.526Z,925.54
2023-01-19T04:08:12.172Z,925.58
2023-01-19T04:09:12.837Z,925.57
2023-01-19T04:10:13.138Z,925.52
2023-01-19T04:11:13.784Z,925.51
2023-01-19T04:12:14.133Z,925.56
2023-01-19T04:13:14.667Z,925.56
2023-01-19T04:14:15.291Z,925.51
2023-01-19T04:15:16.236Z,925.55
2023-01-19T04:16:17.152Z,925.59
2023-01-19T04:17:17.571Z,925.58
2023-01-19T04:18:17.816Z,925.54
2023-01-19T04:19:18.689Z,925.59
2023-01-19T04:20:19.611Z,925.55
2023-01-19T04:21:19.817Z,925.63
2023-01-19T04:22:20.018Z,925.59
2023-01-19T04:23:20.656Z,925.6
2023-01-19T04:24:21.128Z,925.57
2023-01-19T04:25:21.345Z,925.58
2023-01-19T04:26:22.355Z,925.55
2023-01-19T04:27:23.311Z,925.56
2023-01-19T04:28:23.528Z,925.56
2023-01-19T04:29:23.718Z,925.55
2023-01-19T04:30:24.679Z,925.57
2023-01-19T04:31:25.344Z,925.57
2023-01-19T04:32:25.588Z,925.53
2023-01-19T04:33:26.151Z,925.6
2023-01-19T04:34:27.098Z,925.57
2023-01-19T04:35:27.593Z,925.54
2023-01-19T04:36:27.804Z,925.55
2023-01-19T04:37:28.009Z,925.55
2023-01-19T04:38:28.913Z,925.54
2023-01-19T04:39:29.188Z,925.49
2023-01-19T04:40:29.394Z,925.48
2023-01-19T04:41:31.163Z,925.51
2023-01-19T04:42:30.847Z,925.5
2023-01-19T04:43:31.529Z,925.51
2023-01-19T04:44:31.717Z,925.57
2023-01-19T04:45:31.934Z,925.54
2023-01-19T04:46:32.166Z,925.57
2023-01-19T04:47:32.628Z,925.58
2023-01-19T04:48:33.603Z,925.57
2023-01-19T04:49:34.109Z,925.56
2023-01-19T04:50:34.941Z,925.58
2023-01-19T04:51:35.424Z,925.62
2023-01-19T04:52:36.000Z,925.59
2023-01-19T04:53:36.952Z,925.62
2023-01-19T04:54:37.415Z,925.58
2023-01-19T04:55:37.932Z,925.57
2023-01-19T04:56:38.560Z,925.64
2023-01-19T04:57:39.490Z,925.65
2023-01-19T04:58:39.688Z,925.65
2023-01-19T04:59:40.660Z,925.65
2023-01-19T05:00:41.043Z,925.68
2023-01-19T05:01:41.187Z,925.62
2023-01-19T05:02:42.055Z,925.69
2023-01-19T05:03:42.304Z,925.67
2023-01-19T05:04:43.221Z,925.68
2023-01-19T05:05:43.554Z,925.68
2023-01-19T05:06:44.085Z,925.66
2023-01-19T05:07:45.007Z,925.68
2023-01-19T05:08:45.665Z,925.68
2023-01-19T05:09:45.855Z,925.74
2023-01-19T05:10:46.780Z,925.72
2023-01-19T05:11:47.748Z,925.76
2023-01-19T05:12:48.731Z,925.78
2023-01-19T05:13:50.864Z,925.76
2023-01-19T05:14:50.193Z,925.77
2023-01-19T05:15:51.169Z,925.83
2023-01-19T05:16:51.557Z,925.81
2023-01-19T05:17:51.799Z,925.81
2023-01-19T05:18:52.090Z,925.82
2023-01-19T05:19:52.879Z,925.83
2023-01-19T05:20:53.085Z,925.85
2023-01-19T05:21:53.455Z,925.88
2023-01-19T05:22:54.361Z,925.87
2023-01-19T05:23:54.689Z,925.88
2023-01-19T05:24:55.613Z,925.84
2023-01-19T05:25:56.236Z,925.85
2023-01-19T05:26:56.739Z,925.88
2023-01-19T05:27:56.967Z,925.89
2023-01-19T05:28:57.165Z,925.86
2023-01-19T05:29:57.593Z,925.83
2023-01-19T05:30:58.772Z,925.88
2023-01-19T05:31:59.555Z,925.9
2023-01-19T05:33:00.525Z,925.84
2023-01-19T05:34:00.963Z,925.87
2023-01-19T05:35:01.187Z,925.87
2023-01-19T05:36:01.902Z,925.85
2023-01-19T05:37:02.113Z,925.82
2023-01-19T05:38:02.742Z,925.83
2023-01-19T05:39:03.807Z,925.83
2023-01-19T05:40:04.801Z,925.85
2023-01-19T05:41:05.706Z,925.82
2023-01-19T05:42:05.907Z,925.85
2023-01-19T05:43:06.829Z,925.84
2023-01-19T05:44:07.317Z,925.85
2023-01-19T05:45:08.262Z,925.86
2023-01-19T05:46:08.919Z,925.84
2023-01-19T05:47:09.661Z,925.83
2023-01-19T05:48:10.600Z,925.85
2023-01-19T05:49:10.895Z,925.89
2023-01-19T05:50:11.235Z,925.89
2023-01-19T05:51:11.425Z,925.88
2023-01-19T05:52:11.908Z,925.88
2023-01-19T05:53:12.535Z,925.92
2023-01-19T05:54:13.454Z,925.95
2023-01-19T05:55:15.459Z,925.99
2023-01-19T05:56:15.432Z,926.02
2023-01-19T05:57:16.356Z,925.99
2023-01-19T05:58:16.582Z,926.02
2023-01-19T05:59:17.488Z,926.02
2023-01-19T06:00:18.501Z,926.02
2023-01-19T06:01:18.791Z,926.01
2023-01-19T06:02:19.733Z,925.96
2023-01-19T06:03:20.606Z,926.03
2023-01-19T06:04:21.433Z,926.02
2023-01-19T06:05:22.365Z,926.05
2023-01-19T06:06:23.442Z,926.08
2023-01-19T06:07:24.429Z,926.09
2023-01-19T06:08:24.460Z,926.12
2023-01-19T06:09:25.110Z,926.09
2023-01-19T06:10:25.744Z,926.12
2023-01-19T06:11:26.019Z,926.07
2023-01-19T06:12:26.236Z,926.12
2023-01-19T06:13:27.135Z,926.11
2023-01-19T06:14:27.759Z,926.05
2023-01-19T06:15:28.414Z,926.08
2023-01-19T06:16:28.730Z,926.12
2023-01-19T06:17:29.489Z,926.12
2023-01-19T06:18:30.445Z,926.13
2023-01-19T06:19:30.972Z,926.13
2023-01-19T06:20:31.883Z,926.13
2023-01-19T06:21:32.793Z,926.17
2023-01-19T06:22:33.735Z,926.17
2023-01-19T06:23:34.385Z,926.18
2023-01-19T06:24:34.921Z,926.18
2023-01-19T06:25:35.121Z,926.18
2023-01-19T06:26:35.321Z,926.19
2023-01-19T06:27:36.166Z,926.21
2023-01-19T06:28:36.370Z,926.2
2023-01-19T06:29:36.907Z,926.21
2023-01-19T06:30:37.571Z,926.23
2023-01-19T06:31:38.007Z,926.26
2023-01-19T06:32:38.240Z,926.29
2023-01-19T06:33:38.468Z,926.27
2023-01-19T06:34:39.027Z,926.3
2023-01-19T06:35:39.265Z,926.36
2023-01-19T06:36:39.873Z,926.34
2023-01-19T06:37:40.797Z,926.35
2023-01-19T06:38:41.287Z,926.33
2023-01-19T06:39:41.777Z,926.35
2023-01-19T06:40:42.065Z,926.34
2023-01-19T06:41:42.531Z,926.34
2023-01-19T06:42:43.486Z,926.39
2023-01-19T06:43:43.777Z,926.39
2023-01-19T06:44:43.982Z,926.36
2023-01-19T06:45:45.913Z,926.41
2023-01-19T06:46:45.334Z,926.41
2023-01-19T06:47:45.438Z,926.39
2023-01-19T06:48:45.992Z,926.39
2023-01-19T06:49:46.567Z,926.39
2023-01-19T06:50:46.776Z,926.39
2023-01-19T06:51:47.861Z,926.39
2023-01-19T06:52:48.756Z,926.36
2023-01-19T06:53:48.899Z,926.41
2023-01-19T06:54:49.734Z,926.38
2023-01-19T06:55:49.913Z,926.42
2023-01-19T06:56:50.326Z,926.43
2023-01-19T06:57:50.602Z,926.4
2023-01-19T06:58:50.888Z,926.43
2023-01-19T06:59:51.103Z,926.39
2023-01-19T07:00:52.106Z,926.44
2023-01-19T07:01:52.718Z,926.42
2023-01-19T07:02:53.607Z,926.45
2023-01-19T07:03:54.105Z,926.44
2023-01-19T07:04:54.380Z,926.45
2023-01-19T07:05:55.294Z,926.44
2023-01-19T07:06:55.823Z,926.49
2023-01-19T07:07:56.081Z,926.53
2023-01-19T07:08:56.342Z,926.54
2023-01-19T07:09:56.554Z,926.53
2023-01-19T07:11:33.830Z,926.57
2023-01-19T07:12:34.125Z,926.59
2023-01-19T07:13:35.039Z,926.63
2023-01-19T07:14:35.447Z,926.66
2023-01-19T07:15:36.109Z,926.65
2023-01-19T07:16:36.334Z,926.72
2023-01-19T07:17:36.559Z,926.69
2023-01-19T07:18:37.177Z,926.69
2023-01-19T07:19:37.460Z,926.7
2023-01-19T07:20:38.035Z,926.72
2023-01-19T07:21:38.492Z,926.71
2023-01-19T07:22:38.985Z,926.73
2023-01-19T07:23:39.345Z,926.75
2023-01-19T07:24:39.988Z,926.74
2023-01-19T07:25:40.195Z,926.76
2023-01-19T07:26:40.409Z,926.78
2023-01-19T07:27:40.629Z,926.75
2023-01-19T07:28:40.855Z,926.78
2023-01-19T07:29:41.663Z,926.78
2023-01-19T07:30:42.734Z,926.81
2023-01-19T07:31:43.178Z,926.8
2023-01-19T07:32:43.419Z,926.83
2023-01-19T07:33:43.872Z,926.86
2023-01-19T07:34:44.372Z,926.84
2023-01-19T07:35:44.938Z,926.88
2023-01-19T07:36:45.873Z,926.87
2023-01-19T07:37:46.800Z,926.89
2023-01-19T07:38:47.027Z,926.9
2023-01-19T07:39:47.961Z,926.93
2023-01-19T07:40:48.151Z,926.93
2023-01-19T07:41:48.435Z,926.92
2023-01-19T07:42:48.717Z,926.93
2023-01-19T07:43:49.740Z,926.94
2023-01-19T07:44:50.032Z,926.99
2023-01-19T07:45:50.291Z,926.99
2023-01-19T07:46:51.164Z,926.96
2023-01-19T07:47:51.704Z,926.96
2023-01-19T07:48:51.919Z,926.98
2023-01-19T07:49:52.862Z,926.99
2023-01-19T07:50:53.158Z,927.02
2023-01-19T07:51:53.969Z,927.02
2023-01-19T07:52:54.187Z,927.06
2023-01-19T07:53:54.556Z,927.05
2023-01-19T07:54:54.782Z,927.06
2023-01-19T07:55:55.022Z,927.06
2023-01-19T07:56:55.980Z,927.09
2023-01-19T07:57:56.930Z,927.1
2023-01-19T07:58:57.279Z,927.11
2023-01-19T07:59:57.516Z,927.14
2023-01-19T08:00:57.791Z,927.16
2023-01-19T08:01:58.450Z,927.22
2023-01-19T08:02:59.425Z,927.22
2023-01-19T08:03:59.850Z,927.25
2023-01-19T08:05:00.839Z,927.25
2023-01-19T08:06:01.913Z,927.26
2023-01-19T08:07:02.431Z,927.29
2023-01-19T08:08:03.528Z,927.33
2023-01-19T08:09:04.216Z,927.34
2023-01-19T08:10:05.143Z,927.33
2023-01-19T08:11:05.375Z,927.35
2023-01-19T08:12:05.839Z,927.33
2023-01-19T08:13:06.073Z,927.32
2023-01-19T08:14:08.076Z,927.28
2023-01-19T08:15:07.892Z,927.31
2023-01-19T08:16:08.761Z,927.3
2023-01-19T08:17:09.296Z,927.28
2023-01-19T08:18:10.281Z,927.3
2023-01-19T08:19:10.553Z,927.25
2023-01-19T08:20:11.514Z,927.26
2023-01-19T08:21:11.949Z,927.27
2023-01-19T08:22:12.262Z,927.28
2023-01-19T08:23:12.749Z,927.25
2023-01-19T08:24:13.432Z,927.31
2023-01-19T08:25:13.824Z,927.29
2023-01-19T08:26:14.545Z,927.3
2023-01-19T08:27:14.833Z,927.31
2023-01-19T08:28:15.754Z,927.32
2023-01-19T08:29:15.971Z,927.3
2023-01-19T08:30:16.251Z,927.28
2023-01-19T08:31:21.000Z,927.35
2023-01-19T08:32:17.245Z,927.32
2023-01-19T08:33:17.840Z,927.39
2023-01-19T08:34:18.775Z,927.32
2023-01-19T08:35:18.997Z,927.36
2023-01-19T08:36:19.280Z,927.37
2023-01-19T08:37:19.498Z,927.4
2023-01-19T08:38:20.419Z,927.43
2023-01-19T08:39:20.916Z,927.41
2023-01-19T08:40:21.118Z,927.36
2023-01-19T08:41:21.381Z,927.4
2023-01-19T08:42:22.461Z,927.42
2023-01-19T08:43:22.643Z,927.31
2023-01-19T08:44:23.519Z,927.36
2023-01-19T08:45:23.675Z,927.36
2023-01-19T08:46:24.001Z,927.38
2023-01-19T08:47:24.298Z,927.38
2023-01-19T08:48:25.180Z,927.4
2023-01-19T08:49:25.967Z,927.38
2023-01-19T08:50:26.243Z,927.38
2023-01-19T08:51:26.357Z,927.36
2023-01-19T08:52:27.243Z,927.33
2023-01-19T08:53:27.766Z,927.36
2023-01-19T08:54:28.714Z,927.42
2023-01-19T08:55:28.921Z,927.37
2023-01-19T08:56:29.891Z,927.4
2023-01-19T08:57:30.866Z,927.41
2023-01-19T08:58:31.102Z,927.42
2023-01-19T08:59:31.857Z,927.39
2023-01-19T09:00:32.065Z,927.4
2023-01-19T09:01:32.987Z,927.42
2023-01-19T09:02:33.120Z,927.43
2023-01-19T09:03:33.399Z,927.4
2023-01-19T09:04:33.681Z,927.44
2023-01-19T09:05:34.024Z,927.46
2023-01-19T09:06:34.630Z,927.48
2023-01-19T09:07:35.579Z,927.48
2023-01-19T09:08:35.920Z,927.48
2023-01-19T09:09:36.173Z,927.49
2023-01-19T09:10:37.111Z,927.47
2023-01-19T09:11:37.304Z,927.5
2023-01-19T09:12:38.137Z,927.53
2023-01-19T09:13:38.510Z,927.5
2023-01-19T09:14:39.587Z,927.5
2023-01-19T09:15:39.812Z,927.52
2023-01-19T09:16:40.473Z,927.58
2023-01-19T09:17:41.212Z,927.53
2023-01-19T09:18:41.984Z,927.52
2023-01-19T09:19:42.229Z,927.54
2023-01-19T09:20:42.825Z,927.58
2023-01-19T09:21:43.444Z,927.59
2023-01-19T09:22:44.210Z,927.6
2023-01-19T09:23:44.707Z,927.64
2023-01-19T09:24:44.942Z,927.66
2023-01-19T09:25:46.011Z,927.7
2023-01-19T09:26:46.515Z,927.64
2023-01-19T09:27:46.783Z,927.63
2023-01-19T09:28:47.704Z,927.63
2023-01-19T09:29:48.363Z,927.68
2023-01-19T09:30:48.634Z,927.66
2023-01-19T09:31:48.974Z,927.66
2023-01-19T09:32:49.899Z,927.65
2023-01-19T09:33:50.171Z,927.62
2023-01-19T09:34:51.216Z,927.62
2023-01-19T09:35:51.865Z,927.66
2023-01-19T09:36:52.521Z,927.7
2023-01-19T09:37:52.737Z,927.72
2023-01-19T09:38:53.079Z,927.71
2023-01-19T09:39:54.095Z,927.72
2023-01-19T09:40:54.513Z,927.69
2023-01-19T09:41:55.466Z,927.72
2023-01-19T09:42:55.977Z,927.71
2023-01-19T09:43:56.481Z,927.7
2023-01-19T09:44:56.680Z,927.72
2023-01-19T09:45:57.633Z,927.76
2023-01-19T09:46:57.903Z,927.71
2023-01-19T09:47:58.558Z,927.74
2023-01-19T09:48:58.992Z,927.69
2023-01-19T09:49:59.628Z,927.7
2023-01-19T09:51:00.203Z,927.65
2023-01-19T09:52:00.685Z,927.69
2023-01-19T09:53:01.700Z,927.68
2023-01-19T09:54:02.202Z,927.7
2023-01-19T09:55:02.296Z,927.7
2023-01-19T09:56:02.791Z,927.72
2023-01-19T09:57:03.200Z,927.69
2023-01-19T09:58:04.361Z,927.69
2023-01-19T09:59:05.044Z,927.73
2023-01-19T10:00:05.304Z,927.73
2023-01-19T10:01:05.727Z,927.76
2023-01-19T10:02:06.589Z,927.77
2023-01-19T10:03:07.067Z,927.76
2023-01-19T10:04:07.590Z,927.73
2023-01-19T10:05:07.791Z,927.73
2023-01-19T10:06:08.148Z,927.71
2023-01-19T10:07:08.763Z,927.69
2023-01-19T10:08:09.708Z,927.7
2023-01-19T10:09:09.978Z,927.72
2023-01-19T10:10:10.411Z,927.71
2023-01-19T10:11:10.935Z,927.75
2023-01-19T10:12:11.960Z,927.77
2023-01-19T10:13:12.571Z,927.73
2023-01-19T10:14:13.534Z,927.78
2023-01-19T10:15:14.405Z,927.76
2023-01-19T10:16:14.917Z,927.72
2023-01-19T10:17:15.381Z,927.74
2023-01-19T10:18:15.935Z,927.74
2023-01-19T10:19:16.921Z,927.8
2023-01-19T10:20:17.431Z,927.78
2023-01-19T10:21:18.386Z,927.82
2023-01-19T10:22:19.467Z,927.82
2023-01-19T10:23:20.325Z,927.81
2023-01-19T10:24:20.574Z,927.8
2023-01-19T10:25:21.591Z,927.81
2023-01-19T10:26:21.971Z,927.8
2023-01-19T10:27:22.257Z,927.82
2023-01-19T10:28:22.931Z,927.81
2023-01-19T10:29:23.052Z,927.8
2023-01-19T10:30:23.275Z,927.77
2023-01-19T10:31:24.241Z,927.8
2023-01-19T10:32:24.959Z,927.82
2023-01-19T10:33:25.492Z,927.8
2023-01-19T10:34:26.513Z,927.79
2023-01-19T10:35:27.068Z,927.84
2023-01-19T10:36:27.677Z,927.83
2023-01-19T10:37:28.567Z,927.85
2023-01-19T10:38:28.960Z,927.83
2023-01-19T10:39:29.267Z,927.83
2023-01-19T10:40:29.516Z,927.85
2023-01-19T10:41:29.564Z,927.85
2023-01-19T10:42:30.126Z,927.85
2023-01-19T10:43:30.414Z,927.84
2023-01-19T10:44:30.955Z,927.85
2023-01-19T10:45:32.098Z,927.85
2023-01-19T10:46:33.039Z,927.79
2023-01-19T10:47:34.074Z,927.77
2023-01-19T10:48:35.187Z,927.82
2023-01-19T10:49:35.709Z,927.81
2023-01-19T10:50:36.372Z,927.77
2023-01-19T10:51:36.901Z,927.81
2023-01-19T10:52:37.370Z,927.81
2023-01-19T10:53:38.297Z,927.8
2023-01-19T10:54:38.608Z,927.76
2023-01-19T10:55:39.413Z,927.79
2023-01-19T10:56:39.946Z,927.74
2023-01-19T10:57:40.976Z,927.73
2023-01-19T10:58:41.826Z,927.74
2023-01-19T10:59:42.446Z,927.73
2023-01-19T11:00:42.863Z,927.69
2023-01-19T11:01:43.326Z,927.7
2023-01-19T11:02:43.859Z,927.7
2023-01-19T11:03:44.763Z,927.69
2023-01-19T11:04:45.439Z,927.71
2023-01-19T11:05:45.833Z,927.71
2023-01-19T11:06:46.086Z,927.7
2023-01-19T11:07:46.381Z,927.69
2023-01-19T11:08:47.014Z,927.67
2023-01-19T11:09:47.669Z,927.66
2023-01-19T11:10:49.317Z,927.66
2023-01-19T11:11:49.576Z,927.63
2023-01-19T11:12:49.783Z,927.63
2023-01-19T11:13:50.003Z,927.67
2023-01-19T11:14:50.930Z,927.62
2023-01-19T11:15:51.134Z,927.63
2023-01-19T11:16:52.174Z,927.65
2023-01-19T11:17:52.691Z,927.65
2023-01-19T11:18:53.616Z,927.63
2023-01-19T11:19:54.325Z,927.62
2023-01-19T11:20:54.854Z,927.59
2023-01-19T11:21:55.825Z,927.57
2023-01-19T11:22:56.487Z,927.58
2023-01-19T11:23:56.820Z,927.55
2023-01-19T11:24:57.315Z,927.57
2023-01-19T11:25:57.542Z,927.55
2023-01-19T11:26:58.201Z,927.55
2023-01-19T11:27:58.718Z,927.49
2023-01-19T11:28:59.219Z,927.53
2023-01-19T11:29:59.457Z,927.58
2023-01-19T11:31:00.440Z,927.53
2023-01-19T11:32:00.607Z,927.54
2023-01-19T11:33:01.508Z,927.55
2023-01-19T11:34:02.060Z,927.57
2023-01-19T11:35:02.489Z,927.58
2023-01-19T11:36:03.411Z,927.57
2023-01-19T11:37:03.989Z,927.6
2023-01-19T11:38:04.626Z,927.58
2023-01-19T11:39:05.159Z,927.56
2023-01-19T11:40:06.103Z,927.53
2023-01-19T11:41:07.043Z,927.52
2023-01-19T11:42:07.312Z,927.52
2023-01-19T11:43:07.637Z,927.51
2023-01-19T11:44:07.738Z,927.49
2023-01-19T11:45:07.962Z,927.49
2023-01-19T11:46:08.274Z,927.46
2023-01-19T11:47:08.827Z,927.45
2023-01-19T11:48:09.486Z,927.45
2023-01-19T11:49:10.117Z,927.46
2023-01-19T11:50:10.438Z,927.41
2023-01-19T11:51:10.925Z,927.44
2023-01-19T11:52:11.217Z,927.43
2023-01-19T11:53:11.525Z,927.43
2023-01-19T11:54:11.861Z,927.38
2023-01-19T11:55:12.126Z,927.38
2023-01-19T11:56:12.345Z,927.39
2023-01-19T11:57:13.269Z,927.37
2023-01-19T11:58:14.189Z,927.37
2023-01-19T11:59:14.384Z,927.32
2023-01-19T12:00:15.151Z,927.34
2023-01-19T12:01:15.135Z,927.32
2023-01-19T12:02:15.999Z,927.32
2023-01-19T12:03:17.061Z,927.34
2023-01-19T12:04:17.641Z,927.31
2023-01-19T12:05:18.231Z,927.34
2023-01-19T12:06:18.477Z,927.29
2023-01-19T12:07:18.581Z,927.3
2023-01-19T12:08:19.177Z,927.28
2023-01-19T12:09:19.821Z,927.3
2023-01-19T12:10:20.107Z,927.27
2023-01-19T12:11:20.354Z,927.31
2023-01-19T12:12:20.809Z,927.28
2023-01-19T12:13:21.409Z,927.28
2023-01-19T12:14:21.763Z,927.26
2023-01-19T12:15:22.007Z,927.25
2023-01-19T12:16:22.593Z,927.25
2023-01-19T12:17:23.055Z,927.23
2023-01-19T12:18:23.309Z,927.25
2023-01-19T12:19:23.568Z,927.25
2023-01-19T12:20:24.273Z,927.21
2023-01-19T12:21:24.493Z,927.2
2023-01-19T12:22:25.019Z,927.18
2023-01-19T12:23:25.585Z,927.2
2023-01-19T12:24:26.637Z,927.24
2023-01-19T12:25:27.048Z,927.22
2023-01-19T12:26:27.741Z,927.24
2023-01-19T12:27:28.065Z,927.2
2023-01-19T12:28:28.310Z,927.2
2023-01-19T12:29:28.517Z,927.19
2023-01-19T12:30:29.109Z,927.2
2023-01-19T12:31:30.094Z,927.17
2023-01-19T12:32:30.111Z,927.15
2023-01-19T12:33:30.202Z,927.12
2023-01-19T12:34:30.923Z,927.12
2023-01-19T12:35:31.163Z,927.11
2023-01-19T12:36:31.816Z,927.12
2023-01-19T12:37:32.140Z,927.1
2023-01-19T12:38:32.577Z,927.1
2023-01-19T12:39:33.145Z,927.1